sensor_id;sensor_type;location;lat;lon;timestamp;temperature;humidity
7814;DHT22;3952;48.364;16.022;2022-11-27T00:00:44;5.20;99.90
7814;DHT22;3952;48.364;16.022;2022-11-27T00:03:11;5.20;99.90
7814;DHT22;3952;48.364;16.022;2022-11-27T00:05:38;5.20;99.90
7814;DHT22;3952;48.364;16.022;2022-11-27T00:08:06;5.20;99.90
7814;DHT22;3952;48.364;16.022;2022-11-27T00:10:33;5.20;99.90
7814;DHT22;3952;48.364;16.022;2022-11-27T00:13:00;5.20;99.90
7814;DHT22;3952;48.364;16.022;2022-11-27T00:15:27;5.30;99.90
7814;DHT22;3952;48.364;16.022;2022-11-27T00:17:56;5.30;99.90
7814;DHT22;3952;48.364;16.022;2022-11-27T00:20:24;5.30;99.90
7814;DHT22;3952;48.364;16.022;2022-11-27T00:22:51;5.20;99.90
7814;DHT22;3952;48.364;16.022;2022-11-27T00:25:18;5.30;99.90
7814;DHT22;3952;48.364;16.022;2022-11-27T00:27:45;5.30;99.90
7814;DHT22;3952;48.364;16.022;2022-11-27T00:30:13;5.20;99.90
7814;DHT22;3952;48.364;16.022;2022-11-27T00:32:41;5.20;99.90
7814;DHT22;3952;48.364;16.022;2022-11-27T00:35:09;5.20;99.90
7814;DHT22;3952;48.364;16.022;2022-11-27T00:37:37;5.20;99.90
7814;DHT22;3952;48.364;16.022;2022-11-27T00:40:05;5.20;99.90
7814;DHT22;3952;48.364;16.022;2022-11-27T00:42:33;5.30;99.90
7814;DHT22;3952;48.364;16.022;2022-11-27T00:45:00;5.30;99.90
7814;DHT22;3952;48.364;16.022;2022-11-27T00:47:27;5.30;99.90
7814;DHT22;3952;48.364;16.022;2022-11-27T00:49:54;5.40;99.90
7814;DHT22;3952;48.364;16.022;2022-11-27T00:52:23;5.40;99.90
7814;DHT22;3952;48.364;16.022;2022-11-27T00:54:50;5.40;99.90
7814;DHT22;3952;48.364;16.022;2022-11-27T00:57:17;5.40;99.90
7814;DHT22;3952;48.364;16.022;2022-11-27T00:59:45;5.40;99.90
7814;DHT22;3952;48.364;16.022;2022-11-27T01:02:12;5.40;99.90
7814;DHT22;3952;48.364;16.022;2022-11-27T01:04:39;5.40;99.90
7814;DHT22;3952;48.364;16.022;2022-11-27T01:07:06;5.40;99.90
7814;DHT22;3952;48.364;16.022;2022-11-27T01:09:35;5.50;99.90
7814;DHT22;3952;48.364;16.022;2022-11-27T01:12:03;5.50;99.90
7814;DHT22;3952;48.364;16.022;2022-11-27T01:14:30;5.40;99.90
7814;DHT22;3952;48.364;16.022;2022-11-27T01:16:58;5.40;99.90
7814;DHT22;3952;48.364;16.022;2022-11-27T01:19:25;5.40;99.90
7814;DHT22;3952;48.364;16.022;2022-11-27T01:21:53;5.40;99.90
7814;DHT22;3952;48.364;16.022;2022-11-27T01:24:20;5.30;99.90
7814;DHT22;3952;48.364;16.022;2022-11-27T01:26:48;5.30;99.90
7814;DHT22;3952;48.364;16.022;2022-11-27T01:29:16;5.30;99.90
7814;DHT22;3952;48.364;16.022;2022-11-27T01:31:43;5.30;99.90
7814;DHT22;3952;48.364;16.022;2022-11-27T01:34:14;5.30;99.90
7814;DHT22;3952;48.364;16.022;2022-11-27T01:36:42;5.30;99.90
7814;DHT22;3952;48.364;16.022;2022-11-27T01:39:13;5.30;99.90
7814;DHT22;3952;48.364;16.022;2022-11-27T01:41:41;5.30;99.90
7814;DHT22;3952;48.364;16.022;2022-11-27T01:44:47;5.20;99.90
7814;DHT22;3952;48.364;16.022;2022-11-27T01:47:21;5.20;99.90
7814;DHT22;3952;48.364;16.022;2022-11-27T01:49:53;5.20;99.90
7814;DHT22;3952;48.364;16.022;2022-11-27T01:52:25;5.10;99.90
7814;DHT22;3952;48.364;16.022;2022-11-27T01:54:56;5.10;99.90
7814;DHT22;3952;48.364;16.022;2022-11-27T01:57:27;5.00;99.90
7814;DHT22;3952;48.364;16.022;2022-11-27T01:59:59;4.90;99.90
7814;DHT22;3952;48.364;16.022;2022-11-27T02:02:27;4.80;99.90
7814;DHT22;3952;48.364;16.022;2022-11-27T02:04:54;4.80;99.90
7814;DHT22;3952;48.364;16.022;2022-11-27T02:07:22;4.80;99.90
7814;DHT22;3952;48.364;16.022;2022-11-27T02:09:50;4.80;99.90
7814;DHT22;3952;48.364;16.022;2022-11-27T02:12:21;4.80;99.90
7814;DHT22;3952;48.364;16.022;2022-11-27T02:14:59;4.80;99.90
7814;DHT22;3952;48.364;16.022;2022-11-27T02:17:33;4.80;99.90
7814;DHT22;3952;48.364;16.022;2022-11-27T02:20:13;4.80;99.90
7814;DHT22;3952;48.364;16.022;2022-11-27T02:22:59;4.70;99.90
7814;DHT22;3952;48.364;16.022;2022-11-27T02:25:33;4.60;99.90
7814;DHT22;3952;48.364;16.022;2022-11-27T02:28:28;4.60;99.90
7814;DHT22;3952;48.364;16.022;2022-11-27T02:31:02;4.50;99.90
7814;DHT22;3952;48.364;16.022;2022-11-27T02:33:34;4.40;99.90
7814;DHT22;3952;48.364;16.022;2022-11-27T02:36:07;4.40;99.90
7814;DHT22;3952;48.364;16.022;2022-11-27T02:38:39;4.40;99.90
7814;DHT22;3952;48.364;16.022;2022-11-27T02:41:11;4.30;99.90
7814;DHT22;3952;48.364;16.022;2022-11-27T02:43:41;4.30;99.90
7814;DHT22;3952;48.364;16.022;2022-11-27T02:46:12;4.30;99.90
7814;DHT22;3952;48.364;16.022;2022-11-27T02:48:43;4.30;99.90
7814;DHT22;3952;48.364;16.022;2022-11-27T02:51:14;4.10;99.90
7814;DHT22;3952;48.364;16.022;2022-11-27T02:53:45;4.10;99.90
7814;DHT22;3952;48.364;16.022;2022-11-27T02:56:17;4.10;99.90
7814;DHT22;3952;48.364;16.022;2022-11-27T02:58:47;4.00;99.90
7814;DHT22;3952;48.364;16.022;2022-11-27T03:01:18;4.00;99.90
7814;DHT22;3952;48.364;16.022;2022-11-27T03:03:51;4.00;99.90
7814;DHT22;3952;48.364;16.022;2022-11-27T03:06:24;3.90;99.90
7814;DHT22;3952;48.364;16.022;2022-11-27T03:08:56;3.80;99.90
7814;DHT22;3952;48.364;16.022;2022-11-27T03:11:25;3.70;99.90
7814;DHT22;3952;48.364;16.022;2022-11-27T03:13:58;3.60;99.90
7814;DHT22;3952;48.364;16.022;2022-11-27T03:16:36;3.50;99.90
7814;DHT22;3952;48.364;16.022;2022-11-27T03:19:13;3.40;99.90
7814;DHT22;3952;48.364;16.022;2022-11-27T03:21:44;3.30;99.90
7814;DHT22;3952;48.364;16.022;2022-11-27T03:24:12;3.30;99.90
7814;DHT22;3952;48.364;16.022;2022-11-27T03:26:40;3.30;99.90
7814;DHT22;3952;48.364;16.022;2022-11-27T03:29:11;3.30;99.90
7814;DHT22;3952;48.364;16.022;2022-11-27T03:31:41;3.20;99.90
7814;DHT22;3952;48.364;16.022;2022-11-27T03:34:09;3.20;99.90
7814;DHT22;3952;48.364;16.022;2022-11-27T03:36:36;3.20;99.90
7814;DHT22;3952;48.364;16.022;2022-11-27T03:39:04;3.20;99.90
7814;DHT22;3952;48.364;16.022;2022-11-27T03:41:40;3.10;99.90
7814;DHT22;3952;48.364;16.022;2022-11-27T03:44:13;3.10;99.90
7814;DHT22;3952;48.364;16.022;2022-11-27T03:46:51;3.10;99.90
7814;DHT22;3952;48.364;16.022;2022-11-27T03:49:30;3.00;99.90
7814;DHT22;3952;48.364;16.022;2022-11-27T03:52:07;3.00;99.90
7814;DHT22;3952;48.364;16.022;2022-11-27T03:54:42;3.10;99.90
7814;DHT22;3952;48.364;16.022;2022-11-27T03:57:17;3.10;99.90
7814;DHT22;3952;48.364;16.022;2022-11-27T03:59:48;3.10;99.90
7814;DHT22;3952;48.364;16.022;2022-11-27T04:02:28;3.10;99.90
7814;DHT22;3952;48.364;16.022;2022-11-27T04:04:57;3.10;99.90
7814;DHT22;3952;48.364;16.022;2022-11-27T04:07:24;3.20;99.90
7814;DHT22;3952;48.364;16.022;2022-11-27T04:09:51;3.20;99.90
7814;DHT22;3952;48.364;16.022;2022-11-27T04:12:18;3.20;99.90
7814;DHT22;3952;48.364;16.022;2022-11-27T04:14:46;3.10;99.90
7814;DHT22;3952;48.364;16.022;2022-11-27T04:17:13;3.10;99.90
7814;DHT22;3952;48.364;16.022;2022-11-27T04:19:42;3.10;99.90
7814;DHT22;3952;48.364;16.022;2022-11-27T04:22:09;3.00;99.90
7814;DHT22;3952;48.364;16.022;2022-11-27T04:24:36;3.00;99.90
7814;DHT22;3952;48.364;16.022;2022-11-27T04:27:03;2.90;99.90
7814;DHT22;3952;48.364;16.022;2022-11-27T04:29:31;2.90;99.90
7814;DHT22;3952;48.364;16.022;2022-11-27T04:31:58;2.90;99.90
7814;DHT22;3952;48.364;16.022;2022-11-27T04:34:26;2.80;99.90
7814;DHT22;3952;48.364;16.022;2022-11-27T04:36:54;2.70;99.90
7814;DHT22;3952;48.364;16.022;2022-11-27T04:39:22;2.70;99.90
7814;DHT22;3952;48.364;16.022;2022-11-27T04:41:49;2.70;99.90
7814;DHT22;3952;48.364;16.022;2022-11-27T04:44:17;2.50;99.90
7814;DHT22;3952;48.364;16.022;2022-11-27T04:46:44;2.50;99.90
7814;DHT22;3952;48.364;16.022;2022-11-27T04:49:11;2.50;99.90
7814;DHT22;3952;48.364;16.022;2022-11-27T04:51:39;2.50;99.90
7814;DHT22;3952;48.364;16.022;2022-11-27T04:54:08;2.40;99.90
7814;DHT22;3952;48.364;16.022;2022-11-27T04:56:35;2.40;99.90
7814;DHT22;3952;48.364;16.022;2022-11-27T04:59:03;3.20;99.90
7814;DHT22;3952;48.364;16.022;2022-11-27T05:01:31;2.30;99.90
7814;DHT22;3952;48.364;16.022;2022-11-27T05:03:58;2.30;99.90
7814;DHT22;3952;48.364;16.022;2022-11-27T05:06:26;2.30;99.90
7814;DHT22;3952;48.364;16.022;2022-11-27T05:08:53;2.30;99.90
7814;DHT22;3952;48.364;16.022;2022-11-27T05:11:26;2.30;99.90
7814;DHT22;3952;48.364;16.022;2022-11-27T05:13:54;2.30;99.90
7814;DHT22;3952;48.364;16.022;2022-11-27T05:16:35;2.30;99.90
7814;DHT22;3952;48.364;16.022;2022-11-27T05:19:03;2.30;99.90
7814;DHT22;3952;48.364;16.022;2022-11-27T05:21:30;2.30;99.90
7814;DHT22;3952;48.364;16.022;2022-11-27T05:23:57;2.30;99.90
7814;DHT22;3952;48.364;16.022;2022-11-27T05:26:26;2.30;99.90
7814;DHT22;3952;48.364;16.022;2022-11-27T05:28:53;2.40;99.90
7814;DHT22;3952;48.364;16.022;2022-11-27T05:31:20;2.40;99.90
7814;DHT22;3952;48.364;16.022;2022-11-27T05:33:48;2.40;99.90
7814;DHT22;3952;48.364;16.022;2022-11-27T05:36:15;2.40;99.90
7814;DHT22;3952;48.364;16.022;2022-11-27T05:38:42;2.40;99.90
7814;DHT22;3952;48.364;16.022;2022-11-27T05:41:10;2.30;99.90
7814;DHT22;3952;48.364;16.022;2022-11-27T05:43:38;2.30;99.90
7814;DHT22;3952;48.364;16.022;2022-11-27T05:46:08;2.20;99.90
7814;DHT22;3952;48.364;16.022;2022-11-27T05:48:36;2.20;99.90
7814;DHT22;3952;48.364;16.022;2022-11-27T05:51:04;2.00;99.90
7814;DHT22;3952;48.364;16.022;2022-11-27T05:53:31;2.20;99.90
7814;DHT22;3952;48.364;16.022;2022-11-27T05:56:00;2.20;99.90
7814;DHT22;3952;48.364;16.022;2022-11-27T05:58:28;2.20;99.90
7814;DHT22;3952;48.364;16.022;2022-11-27T06:00:57;2.20;99.90
7814;DHT22;3952;48.364;16.022;2022-11-27T06:03:24;2.20;99.90
7814;DHT22;3952;48.364;16.022;2022-11-27T06:05:51;2.20;99.90
7814;DHT22;3952;48.364;16.022;2022-11-27T06:08:19;2.20;99.90
7814;DHT22;3952;48.364;16.022;2022-11-27T06:10:47;2.10;99.90
7814;DHT22;3952;48.364;16.022;2022-11-27T06:13:15;2.10;99.90
7814;DHT22;3952;48.364;16.022;2022-11-27T06:15:42;2.00;99.90
7814;DHT22;3952;48.364;16.022;2022-11-27T06:18:11;2.10;99.90
7814;DHT22;3952;48.364;16.022;2022-11-27T06:20:38;2.10;99.90
7814;DHT22;3952;48.364;16.022;2022-11-27T06:23:06;2.00;99.90
7814;DHT22;3952;48.364;16.022;2022-11-27T06:25:33;2.00;99.90
7814;DHT22;3952;48.364;16.022;2022-11-27T06:28:00;2.10;99.90
7814;DHT22;3952;48.364;16.022;2022-11-27T06:30:27;2.50;99.90
7814;DHT22;3952;48.364;16.022;2022-11-27T06:32:55;2.10;99.90
7814;DHT22;3952;48.364;16.022;2022-11-27T06:35:23;2.20;99.90
7814;DHT22;3952;48.364;16.022;2022-11-27T06:37:51;2.20;99.90
7814;DHT22;3952;48.364;16.022;2022-11-27T06:40:18;2.20;99.90
7814;DHT22;3952;48.364;16.022;2022-11-27T06:42:45;2.30;99.90
7814;DHT22;3952;48.364;16.022;2022-11-27T06:45:13;2.30;99.90
7814;DHT22;3952;48.364;16.022;2022-11-27T06:47:40;2.40;99.90
7814;DHT22;3952;48.364;16.022;2022-11-27T06:50:08;2.40;99.90
7814;DHT22;3952;48.364;16.022;2022-11-27T06:52:36;2.50;99.90
7814;DHT22;3952;48.364;16.022;2022-11-27T06:55:04;3.10;99.90
7814;DHT22;3952;48.364;16.022;2022-11-27T06:57:31;2.60;99.90
7814;DHT22;3952;48.364;16.022;2022-11-27T06:59:59;2.60;99.90
7814;DHT22;3952;48.364;16.022;2022-11-27T07:02:26;2.60;99.90
7814;DHT22;3952;48.364;16.022;2022-11-27T07:04:53;2.60;99.90
7814;DHT22;3952;48.364;16.022;2022-11-27T07:07:20;2.70;99.90
7814;DHT22;3952;48.364;16.022;2022-11-27T07:09:49;2.70;99.90
7814;DHT22;3952;48.364;16.022;2022-11-27T07:12:16;2.80;99.90
7814;DHT22;3952;48.364;16.022;2022-11-27T07:14:43;2.70;99.90
7814;DHT22;3952;48.364;16.022;2022-11-27T07:17:11;2.80;99.90
7814;DHT22;3952;48.364;16.022;2022-11-27T07:19:38;2.80;99.90
7814;DHT22;3952;48.364;16.022;2022-11-27T07:22:05;2.80;99.90
7814;DHT22;3952;48.364;16.022;2022-11-27T07:24:32;2.90;99.90
7814;DHT22;3952;48.364;16.022;2022-11-27T07:27:01;2.90;99.90
7814;DHT22;3952;48.364;16.022;2022-11-27T07:29:29;3.00;99.90
7814;DHT22;3952;48.364;16.022;2022-11-27T07:31:56;3.00;99.90
7814;DHT22;3952;48.364;16.022;2022-11-27T07:34:23;3.00;99.90
7814;DHT22;3952;48.364;16.022;2022-11-27T07:36:50;3.10;99.90
7814;DHT22;3952;48.364;16.022;2022-11-27T07:39:18;3.10;99.90
7814;DHT22;3952;48.364;16.022;2022-11-27T07:41:45;3.20;99.90
7814;DHT22;3952;48.364;16.022;2022-11-27T07:44:14;3.30;99.90
7814;DHT22;3952;48.364;16.022;2022-11-27T07:46:41;3.30;99.90
7814;DHT22;3952;48.364;16.022;2022-11-27T07:49:08;3.70;99.90
7814;DHT22;3952;48.364;16.022;2022-11-27T07:51:35;3.40;99.90
7814;DHT22;3952;48.364;16.022;2022-11-27T07:54:03;3.50;99.90
7814;DHT22;3952;48.364;16.022;2022-11-27T07:56:30;3.60;99.90
7814;DHT22;3952;48.364;16.022;2022-11-27T07:58:58;3.70;99.90
7814;DHT22;3952;48.364;16.022;2022-11-27T08:01:26;3.80;99.90
7814;DHT22;3952;48.364;16.022;2022-11-27T08:03:53;3.80;99.90
7814;DHT22;3952;48.364;16.022;2022-11-27T08:06:23;3.90;99.90
7814;DHT22;3952;48.364;16.022;2022-11-27T08:08:51;4.00;99.90
7814;DHT22;3952;48.364;16.022;2022-11-27T08:11:22;4.00;99.90
7814;DHT22;3952;48.364;16.022;2022-11-27T08:13:54;4.10;99.90
7814;DHT22;3952;48.364;16.022;2022-11-27T08:16:22;4.10;99.90
7814;DHT22;3952;48.364;16.022;2022-11-27T08:18:50;4.20;99.90
7814;DHT22;3952;48.364;16.022;2022-11-27T08:21:18;4.20;99.90
7814;DHT22;3952;48.364;16.022;2022-11-27T08:23:46;4.30;99.90
7814;DHT22;3952;48.364;16.022;2022-11-27T08:26:13;4.30;99.90
7814;DHT22;3952;48.364;16.022;2022-11-27T08:28:41;4.30;99.90
7814;DHT22;3952;48.364;16.022;2022-11-27T08:31:10;4.40;99.90
7814;DHT22;3952;48.364;16.022;2022-11-27T08:33:38;4.50;99.90
7814;DHT22;3952;48.364;16.022;2022-11-27T08:36:08;4.50;99.90
7814;DHT22;3952;48.364;16.022;2022-11-27T08:38:35;4.60;99.90
7814;DHT22;3952;48.364;16.022;2022-11-27T08:41:05;4.60;99.90
7814;DHT22;3952;48.364;16.022;2022-11-27T08:43:33;4.60;99.90
7814;DHT22;3952;48.364;16.022;2022-11-27T08:46:02;4.70;99.90
7814;DHT22;3952;48.364;16.022;2022-11-27T08:48:30;4.80;99.90
7814;DHT22;3952;48.364;16.022;2022-11-27T08:50:57;4.80;99.90
7814;DHT22;3952;48.364;16.022;2022-11-27T08:53:26;4.80;99.90
7814;DHT22;3952;48.364;16.022;2022-11-27T08:55:53;4.90;99.90
7814;DHT22;3952;48.364;16.022;2022-11-27T08:58:20;4.90;99.90
7814;DHT22;3952;48.364;16.022;2022-11-27T09:00:47;5.00;99.90
7814;DHT22;3952;48.364;16.022;2022-11-27T09:03:15;5.10;99.90
7814;DHT22;3952;48.364;16.022;2022-11-27T09:05:42;5.10;99.90
7814;DHT22;3952;48.364;16.022;2022-11-27T09:08:10;5.10;99.90
7814;DHT22;3952;48.364;16.022;2022-11-27T09:10:42;5.20;99.90
7814;DHT22;3952;48.364;16.022;2022-11-27T09:13:09;5.30;99.90
7814;DHT22;3952;48.364;16.022;2022-11-27T09:15:37;5.30;99.90
7814;DHT22;3952;48.364;16.022;2022-11-27T09:18:04;5.30;99.90
7814;DHT22;3952;48.364;16.022;2022-11-27T09:20:31;5.30;99.90
7814;DHT22;3952;48.364;16.022;2022-11-27T09:22:58;5.30;99.90
7814;DHT22;3952;48.364;16.022;2022-11-27T09:25:27;5.40;99.90
7814;DHT22;3952;48.364;16.022;2022-11-27T09:27:56;5.40;99.90
7814;DHT22;3952;48.364;16.022;2022-11-27T09:30:23;5.40;99.90
7814;DHT22;3952;48.364;16.022;2022-11-27T09:32:51;5.40;99.90
7814;DHT22;3952;48.364;16.022;2022-11-27T09:35:18;5.40;99.90
7814;DHT22;3952;48.364;16.022;2022-11-27T09:37:46;5.40;99.90
7814;DHT22;3952;48.364;16.022;2022-11-27T09:40:13;5.40;99.90
7814;DHT22;3952;48.364;16.022;2022-11-27T09:42:48;5.50;99.90
7814;DHT22;3952;48.364;16.022;2022-11-27T09:45:17;5.50;99.90
7814;DHT22;3952;48.364;16.022;2022-11-27T09:47:47;5.50;99.90
7814;DHT22;3952;48.364;16.022;2022-11-27T09:50:18;5.50;99.90
7814;DHT22;3952;48.364;16.022;2022-11-27T09:52:51;5.50;99.90
7814;DHT22;3952;48.364;16.022;2022-11-27T09:55:23;5.50;99.90
7814;DHT22;3952;48.364;16.022;2022-11-27T09:57:55;5.50;99.90
7814;DHT22;3952;48.364;16.022;2022-11-27T10:00:25;5.60;99.90
7814;DHT22;3952;48.364;16.022;2022-11-27T10:02:53;5.60;99.90
7814;DHT22;3952;48.364;16.022;2022-11-27T10:05:22;5.60;99.90
7814;DHT22;3952;48.364;16.022;2022-11-27T10:08:07;5.60;99.90
7814;DHT22;3952;48.364;16.022;2022-11-27T10:10:41;5.70;99.90
7814;DHT22;3952;48.364;16.022;2022-11-27T10:13:27;5.70;99.90
7814;DHT22;3952;48.364;16.022;2022-11-27T10:16:03;5.80;99.90
7814;DHT22;3952;48.364;16.022;2022-11-27T10:18:37;5.80;99.90
7814;DHT22;3952;48.364;16.022;2022-11-27T10:21:11;5.80;99.90
7814;DHT22;3952;48.364;16.022;2022-11-27T10:23:47;5.80;99.90
7814;DHT22;3952;48.364;16.022;2022-11-27T10:26:18;5.90;99.90
7814;DHT22;3952;48.364;16.022;2022-11-27T10:28:53;5.90;99.90
7814;DHT22;3952;48.364;16.022;2022-11-27T10:31:31;5.90;99.90
7814;DHT22;3952;48.364;16.022;2022-11-27T10:34:02;6.00;99.90
7814;DHT22;3952;48.364;16.022;2022-11-27T10:36:34;6.00;99.90
7814;DHT22;3952;48.364;16.022;2022-11-27T10:39:03;6.10;99.90
7814;DHT22;3952;48.364;16.022;2022-11-27T10:41:38;6.10;99.90
7814;DHT22;3952;48.364;16.022;2022-11-27T10:44:22;6.20;99.90
7814;DHT22;3952;48.364;16.022;2022-11-27T10:46:55;6.20;99.90
7814;DHT22;3952;48.364;16.022;2022-11-27T10:49:24;6.20;99.90
7814;DHT22;3952;48.364;16.022;2022-11-27T10:51:51;6.20;99.90
7814;DHT22;3952;48.364;16.022;2022-11-27T10:54:22;6.20;99.90
7814;DHT22;3952;48.364;16.022;2022-11-27T10:57:30;6.20;99.90
7814;DHT22;3952;48.364;16.022;2022-11-27T11:00:08;6.20;99.90
7814;DHT22;3952;48.364;16.022;2022-11-27T11:02:38;6.30;99.90
7814;DHT22;3952;48.364;16.022;2022-11-27T11:05:19;6.30;99.90
7814;DHT22;3952;48.364;16.022;2022-11-27T11:07:58;6.20;99.90
7814;DHT22;3952;48.364;16.022;2022-11-27T11:10:32;6.20;99.90
7814;DHT22;3952;48.364;16.022;2022-11-27T11:13:13;6.20;99.90
7814;DHT22;3952;48.364;16.022;2022-11-27T11:15:51;6.30;99.90
7814;DHT22;3952;48.364;16.022;2022-11-27T11:18:22;6.40;99.90
7814;DHT22;3952;48.364;16.022;2022-11-27T11:20:51;6.40;99.90
7814;DHT22;3952;48.364;16.022;2022-11-27T11:23:24;6.50;99.90
7814;DHT22;3952;48.364;16.022;2022-11-27T11:25:56;6.50;99.90
7814;DHT22;3952;48.364;16.022;2022-11-27T11:28:24;6.50;99.90
7814;DHT22;3952;48.364;16.022;2022-11-27T11:30:58;6.40;99.90
7814;DHT22;3952;48.364;16.022;2022-11-27T11:33:27;6.40;99.90
7814;DHT22;3952;48.364;16.022;2022-11-27T11:36:00;6.40;99.90
7814;DHT22;3952;48.364;16.022;2022-11-27T11:38:33;6.50;99.90
7814;DHT22;3952;48.364;16.022;2022-11-27T11:41:03;6.50;99.90
7814;DHT22;3952;48.364;16.022;2022-11-27T11:43:32;6.50;99.90
7814;DHT22;3952;48.364;16.022;2022-11-27T11:46:06;6.40;99.90
7814;DHT22;3952;48.364;16.022;2022-11-27T11:48:36;6.40;99.90
7814;DHT22;3952;48.364;16.022;2022-11-27T11:51:09;6.40;99.90
7814;DHT22;3952;48.364;16.022;2022-11-27T11:53:39;6.50;99.90
7814;DHT22;3952;48.364;16.022;2022-11-27T11:56:23;6.60;99.90
7814;DHT22;3952;48.364;16.022;2022-11-27T11:58:57;6.70;99.90
7814;DHT22;3952;48.364;16.022;2022-11-27T12:01:48;6.60;99.90
7814;DHT22;3952;48.364;16.022;2022-11-27T12:04:48;6.70;99.90
7814;DHT22;3952;48.364;16.022;2022-11-27T12:07:30;6.80;99.90
7814;DHT22;3952;48.364;16.022;2022-11-27T12:10:03;6.80;99.90
7814;DHT22;3952;48.364;16.022;2022-11-27T12:12:45;6.90;99.90
7814;DHT22;3952;48.364;16.022;2022-11-27T12:15:17;7.00;99.90
7814;DHT22;3952;48.364;16.022;2022-11-27T12:17:54;7.10;99.90
7814;DHT22;3952;48.364;16.022;2022-11-27T12:20:38;7.20;99.90
7814;DHT22;3952;48.364;16.022;2022-11-27T12:23:36;7.20;99.90
7814;DHT22;3952;48.364;16.022;2022-11-27T12:26:16;7.20;99.90
7814;DHT22;3952;48.364;16.022;2022-11-27T12:28:56;7.20;99.90
7814;DHT22;3952;48.364;16.022;2022-11-27T12:31:35;7.20;99.90
7814;DHT22;3952;48.364;16.022;2022-11-27T12:34:08;7.30;99.90
7814;DHT22;3952;48.364;16.022;2022-11-27T12:36:58;7.30;99.90
7814;DHT22;3952;48.364;16.022;2022-11-27T12:39:32;7.30;99.90
7814;DHT22;3952;48.364;16.022;2022-11-27T12:42:14;7.30;99.90
7814;DHT22;3952;48.364;16.022;2022-11-27T12:44:52;7.30;99.90
7814;DHT22;3952;48.364;16.022;2022-11-27T12:47:26;7.20;99.90
7814;DHT22;3952;48.364;16.022;2022-11-27T12:49:58;7.20;99.90
7814;DHT22;3952;48.364;16.022;2022-11-27T12:52:31;7.10;99.90
7814;DHT22;3952;48.364;16.022;2022-11-27T12:55:03;7.00;99.90
7814;DHT22;3952;48.364;16.022;2022-11-27T12:57:38;7.00;99.90
7814;DHT22;3952;48.364;16.022;2022-11-27T13:00:13;7.00;99.90
7814;DHT22;3952;48.364;16.022;2022-11-27T13:02:44;7.00;99.90
7814;DHT22;3952;48.364;16.022;2022-11-27T13:05:16;7.00;99.90
7814;DHT22;3952;48.364;16.022;2022-11-27T13:07:51;7.10;99.90
7814;DHT22;3952;48.364;16.022;2022-11-27T13:10:25;7.10;99.90
7814;DHT22;3952;48.364;16.022;2022-11-27T13:12:59;7.20;99.90
7814;DHT22;3952;48.364;16.022;2022-11-27T13:15:31;7.20;99.90
7814;DHT22;3952;48.364;16.022;2022-11-27T13:18:07;7.20;99.90
7814;DHT22;3952;48.364;16.022;2022-11-27T13:20:39;7.20;99.90
7814;DHT22;3952;48.364;16.022;2022-11-27T13:23:08;7.20;99.90
7814;DHT22;3952;48.364;16.022;2022-11-27T13:25:40;7.10;99.90
7814;DHT22;3952;48.364;16.022;2022-11-27T13:28:22;7.10;99.90
7814;DHT22;3952;48.364;16.022;2022-11-27T13:30:51;7.10;99.90
7814;DHT22;3952;48.364;16.022;2022-11-27T13:33:32;7.10;99.90
7814;DHT22;3952;48.364;16.022;2022-11-27T13:36:01;7.10;99.90
7814;DHT22;3952;48.364;16.022;2022-11-27T13:38:41;7.10;99.90
7814;DHT22;3952;48.364;16.022;2022-11-27T13:41:19;7.00;99.90
7814;DHT22;3952;48.364;16.022;2022-11-27T13:43:47;7.00;99.90
7814;DHT22;3952;48.364;16.022;2022-11-27T13:46:20;7.00;99.90
7814;DHT22;3952;48.364;16.022;2022-11-27T13:48:51;6.90;99.90
7814;DHT22;3952;48.364;16.022;2022-11-27T13:51:25;7.00;99.90
7814;DHT22;3952;48.364;16.022;2022-11-27T13:54:06;6.90;99.90
7814;DHT22;3952;48.364;16.022;2022-11-27T13:56:33;6.90;99.90
7814;DHT22;3952;48.364;16.022;2022-11-27T13:59:12;6.90;99.90
7814;DHT22;3952;48.364;16.022;2022-11-27T14:01:39;6.80;99.90
7814;DHT22;3952;48.364;16.022;2022-11-27T14:04:18;6.80;99.90
7814;DHT22;3952;48.364;16.022;2022-11-27T14:06:51;6.80;99.90
7814;DHT22;3952;48.364;16.022;2022-11-27T14:09:35;6.80;99.90
7814;DHT22;3952;48.364;16.022;2022-11-27T14:12:16;6.70;99.90
7814;DHT22;3952;48.364;16.022;2022-11-27T14:14:58;6.70;99.90
7814;DHT22;3952;48.364;16.022;2022-11-27T14:17:33;6.70;99.90
7814;DHT22;3952;48.364;16.022;2022-11-27T14:20:04;6.70;99.90
7814;DHT22;3952;48.364;16.022;2022-11-27T14:22:40;6.70;99.90
7814;DHT22;3952;48.364;16.022;2022-11-27T14:25:19;6.70;99.90
7814;DHT22;3952;48.364;16.022;2022-11-27T14:27:47;6.70;99.90
7814;DHT22;3952;48.364;16.022;2022-11-27T14:30:29;6.70;99.90
7814;DHT22;3952;48.364;16.022;2022-11-27T14:32:57;6.70;99.90
7814;DHT22;3952;48.364;16.022;2022-11-27T14:35:26;6.60;99.90
7814;DHT22;3952;48.364;16.022;2022-11-27T14:38:05;6.60;99.90
7814;DHT22;3952;48.364;16.022;2022-11-27T14:40:34;6.60;99.90
7814;DHT22;3952;48.364;16.022;2022-11-27T14:43:09;6.50;99.90
7814;DHT22;3952;48.364;16.022;2022-11-27T14:45:38;6.50;99.90
7814;DHT22;3952;48.364;16.022;2022-11-27T14:48:20;6.40;99.90
7814;DHT22;3952;48.364;16.022;2022-11-27T14:50:49;6.40;99.90
7814;DHT22;3952;48.364;16.022;2022-11-27T14:53:19;6.30;99.90
7814;DHT22;3952;48.364;16.022;2022-11-27T14:55:50;6.30;99.90
7814;DHT22;3952;48.364;16.022;2022-11-27T14:58:21;6.30;99.90
7814;DHT22;3952;48.364;16.022;2022-11-27T15:00:51;6.20;99.90
7814;DHT22;3952;48.364;16.022;2022-11-27T15:03:19;6.20;99.90
7814;DHT22;3952;48.364;16.022;2022-11-27T15:05:52;6.00;99.90
7814;DHT22;3952;48.364;16.022;2022-11-27T15:08:21;5.90;99.90
7814;DHT22;3952;48.364;16.022;2022-11-27T15:10:52;5.80;99.90
7814;DHT22;3952;48.364;16.022;2022-11-27T15:13:23;5.70;99.90
7814;DHT22;3952;48.364;16.022;2022-11-27T15:15:59;5.60;99.90
7814;DHT22;3952;48.364;16.022;2022-11-27T15:18:29;5.50;99.90
7814;DHT22;3952;48.364;16.022;2022-11-27T15:20:57;5.40;99.90
7814;DHT22;3952;48.364;16.022;2022-11-27T15:23:27;5.20;99.90
7814;DHT22;3952;48.364;16.022;2022-11-27T15:26:08;5.10;99.90
7814;DHT22;3952;48.364;16.022;2022-11-27T15:28:38;5.00;99.90
7814;DHT22;3952;48.364;16.022;2022-11-27T15:31:27;4.80;99.90
7814;DHT22;3952;48.364;16.022;2022-11-27T15:33:58;4.70;99.90
7814;DHT22;3952;48.364;16.022;2022-11-27T15:36:26;4.50;99.90
7814;DHT22;3952;48.364;16.022;2022-11-27T15:39:19;4.50;99.90
7814;DHT22;3952;48.364;16.022;2022-11-27T15:41:53;4.40;99.90
7814;DHT22;3952;48.364;16.022;2022-11-27T15:44:22;4.40;99.90
7814;DHT22;3952;48.364;16.022;2022-11-27T15:46:50;4.40;99.90
7814;DHT22;3952;48.364;16.022;2022-11-27T15:49:18;4.40;99.90
7814;DHT22;3952;48.364;16.022;2022-11-27T15:51:46;4.30;99.90
7814;DHT22;3952;48.364;16.022;2022-11-27T15:54:13;4.30;99.90
7814;DHT22;3952;48.364;16.022;2022-11-27T15:56:41;4.20;99.90
7814;DHT22;3952;48.364;16.022;2022-11-27T15:59:10;4.10;99.90
7814;DHT22;3952;48.364;16.022;2022-11-27T16:01:38;4.10;99.90
7814;DHT22;3952;48.364;16.022;2022-11-27T16:04:05;4.00;99.90
7814;DHT22;3952;48.364;16.022;2022-11-27T16:06:34;3.90;99.90
7814;DHT22;3952;48.364;16.022;2022-11-27T16:09:03;3.80;99.90
7814;DHT22;3952;48.364;16.022;2022-11-27T16:11:31;3.60;99.90
7814;DHT22;3952;48.364;16.022;2022-11-27T16:13:58;3.60;99.90
7814;DHT22;3952;48.364;16.022;2022-11-27T16:16:27;3.60;99.90
7814;DHT22;3952;48.364;16.022;2022-11-27T16:18:58;3.50;99.90
7814;DHT22;3952;48.364;16.022;2022-11-27T16:21:26;3.50;99.90
7814;DHT22;3952;48.364;16.022;2022-11-27T16:23:57;3.50;99.90
7814;DHT22;3952;48.364;16.022;2022-11-27T16:26:25;3.50;99.90